sensor_id;sensor_type;location;lat;lon;timestamp;P1;durP1;ratioP1;P2;durP2;ratioP2
36747;SDS011;22716;51.556;5.080;2022-08-04T00:02:31;7.85;;;3.60;;
36747;SDS011;22716;51.556;5.080;2022-08-04T00:05:17;10.60;;;4.15;;
36747;SDS011;22716;51.556;5.080;2022-08-04T00:08:04;9.70;;;4.13;;
36747;SDS011;22716;51.556;5.080;2022-08-04T00:10:38;7.85;;;3.50;;
36747;SDS011;22716;51.556;5.080;2022-08-04T00:13:11;9.48;;;4.32;;
36747;SDS011;22716;51.556;5.080;2022-08-04T00:15:40;7.60;;;3.80;;
36747;SDS011;22716;51.556;5.080;2022-08-04T00:18:13;9.95;;;4.40;;
36747;SDS011;22716;51.556;5.080;2022-08-04T00:20:46;9.00;;;3.33;;
36747;SDS011;22716;51.556;5.080;2022-08-04T00:23:19;16.58;;;4.38;;
36747;SDS011;22716;51.556;5.080;2022-08-04T00:25:55;12.25;;;4.13;;
36747;SDS011;22716;51.556;5.080;2022-08-04T00:28:24;12.13;;;4.15;;
36747;SDS011;22716;51.556;5.080;2022-08-04T00:30:55;9.27;;;4.53;;
36747;SDS011;22716;51.556;5.080;2022-08-04T00:33:24;11.45;;;4.07;;
36747;SDS011;22716;51.556;5.080;2022-08-04T00:35:55;8.95;;;3.92;;
36747;SDS011;22716;51.556;5.080;2022-08-04T00:38:29;11.73;;;4.07;;
36747;SDS011;22716;51.556;5.080;2022-08-04T00:41:00;10.80;;;4.18;;
36747;SDS011;22716;51.556;5.080;2022-08-04T00:43:42;9.53;;;4.10;;
36747;SDS011;22716;51.556;5.080;2022-08-04T00:46:34;9.33;;;4.13;;
36747;SDS011;22716;51.556;5.080;2022-08-04T00:49:32;10.57;;;4.32;;
36747;SDS011;22716;51.556;5.080;2022-08-04T00:52:32;9.23;;;3.88;;
36747;SDS011;22716;51.556;5.080;2022-08-04T00:55:30;14.35;;;4.88;;
36747;SDS011;22716;51.556;5.080;2022-08-04T00:58:24;6.40;;;3.95;;
36747;SDS011;22716;51.556;5.080;2022-08-04T01:01:00;9.48;;;3.30;;
36747;SDS011;22716;51.556;5.080;2022-08-04T01:03:35;8.80;;;4.25;;
36747;SDS011;22716;51.556;5.080;2022-08-04T01:06:23;10.25;;;4.32;;
36747;SDS011;22716;51.556;5.080;2022-08-04T01:09:20;9.48;;;4.07;;
36747;SDS011;22716;51.556;5.080;2022-08-04T01:12:09;6.28;;;3.90;;
36747;SDS011;22716;51.556;5.080;2022-08-04T01:14:55;12.18;;;5.22;;
36747;SDS011;22716;51.556;5.080;2022-08-04T01:17:36;13.48;;;5.25;;
36747;SDS011;22716;51.556;5.080;2022-08-04T01:20:24;15.73;;;5.97;;
36747;SDS011;22716;51.556;5.080;2022-08-04T01:26:12;15.32;;;5.28;;
36747;SDS011;22716;51.556;5.080;2022-08-04T01:29:12;12.13;;;5.63;;
36747;SDS011;22716;51.556;5.080;2022-08-04T01:31:47;12.02;;;5.22;;
36747;SDS011;22716;51.556;5.080;2022-08-04T01:34:23;13.38;;;4.45;;
36747;SDS011;22716;51.556;5.080;2022-08-04T01:37:14;11.20;;;4.63;;
36747;SDS011;22716;51.556;5.080;2022-08-04T01:39:59;11.18;;;4.60;;
36747;SDS011;22716;51.556;5.080;2022-08-04T01:42:36;10.50;;;4.10;;
36747;SDS011;22716;51.556;5.080;2022-08-04T01:45:13;5.43;;;3.77;;
36747;SDS011;22716;51.556;5.080;2022-08-04T01:47:48;11.48;;;4.07;;
36747;SDS011;22716;51.556;5.080;2022-08-04T01:50:19;11.73;;;5.15;;
36747;SDS011;22716;51.556;5.080;2022-08-04T01:53:09;7.15;;;3.75;;
36747;SDS011;22716;51.556;5.080;2022-08-04T01:55:40;10.35;;;4.35;;
36747;SDS011;22716;51.556;5.080;2022-08-04T02:00:54;10.77;;;3.58;;
36747;SDS011;22716;51.556;5.080;2022-08-04T02:03:45;10.68;;;3.85;;
36747;SDS011;22716;51.556;5.080;2022-08-04T02:06:17;8.80;;;5.15;;
36747;SDS011;22716;51.556;5.080;2022-08-04T02:09:02;9.68;;;3.65;;
36747;SDS011;22716;51.556;5.080;2022-08-04T02:11:40;15.27;;;4.05;;
36747;SDS011;22716;51.556;5.080;2022-08-04T02:14:24;11.88;;;3.97;;
36747;SDS011;22716;51.556;5.080;2022-08-04T02:17:16;7.30;;;3.83;;
36747;SDS011;22716;51.556;5.080;2022-08-04T02:19:57;9.18;;;4.75;;
36747;SDS011;22716;51.556;5.080;2022-08-04T02:22:39;8.73;;;3.67;;
36747;SDS011;22716;51.556;5.080;2022-08-04T02:25:16;10.52;;;4.20;;
36747;SDS011;22716;51.556;5.080;2022-08-04T02:27:55;13.32;;;5.65;;
36747;SDS011;22716;51.556;5.080;2022-08-04T02:30:54;18.90;;;9.55;;
36747;SDS011;22716;51.556;5.080;2022-08-04T02:33:34;10.13;;;4.20;;
36747;SDS011;22716;51.556;5.080;2022-08-04T02:36:05;9.80;;;4.47;;
36747;SDS011;22716;51.556;5.080;2022-08-04T02:41:25;9.95;;;5.07;;
36747;SDS011;22716;51.556;5.080;2022-08-04T02:43:56;7.03;;;4.43;;
36747;SDS011;22716;51.556;5.080;2022-08-04T02:46:30;13.38;;;5.15;;
36747;SDS011;22716;51.556;5.080;2022-08-04T02:49:05;14.38;;;5.10;;
36747;SDS011;22716;51.556;5.080;2022-08-04T02:51:35;11.67;;;5.40;;
36747;SDS011;22716;51.556;5.080;2022-08-04T02:54:08;12.47;;;5.97;;
36747;SDS011;22716;51.556;5.080;2022-08-04T02:56:38;10.38;;;5.50;;
36747;SDS011;22716;51.556;5.080;2022-08-04T02:59:09;11.17;;;5.07;;
36747;SDS011;22716;51.556;5.080;2022-08-04T03:01:39;13.02;;;6.18;;
36747;SDS011;22716;51.556;5.080;2022-08-04T03:04:14;13.33;;;6.40;;
36747;SDS011;22716;51.556;5.080;2022-08-04T03:07:12;8.98;;;4.95;;
36747;SDS011;22716;51.556;5.080;2022-08-04T03:10:18;10.90;;;6.45;;
36747;SDS011;22716;51.556;5.080;2022-08-04T03:16:39;8.43;;;5.28;;
36747;SDS011;22716;51.556;5.080;2022-08-04T03:22:58;10.15;;;5.10;;
36747;SDS011;22716;51.556;5.080;2022-08-04T03:32:47;9.15;;;5.25;;
36747;SDS011;22716;51.556;5.080;2022-08-04T03:42:05;15.37;;;5.00;;
36747;SDS011;22716;51.556;5.080;2022-08-04T03:44:58;9.70;;;4.45;;
36747;SDS011;22716;51.556;5.080;2022-08-04T03:48:02;12.95;;;5.90;;
36747;SDS011;22716;51.556;5.080;2022-08-04T03:51:02;8.88;;;4.10;;
36747;SDS011;22716;51.556;5.080;2022-08-04T03:54:05;10.18;;;5.40;;
36747;SDS011;22716;51.556;5.080;2022-08-04T03:57:14;14.35;;;5.32;;
36747;SDS011;22716;51.556;5.080;2022-08-04T04:00:04;16.83;;;5.97;;
36747;SDS011;22716;51.556;5.080;2022-08-04T04:05:56;8.80;;;5.45;;
36747;SDS011;22716;51.556;5.080;2022-08-04T04:11:58;10.50;;;5.28;;
36747;SDS011;22716;51.556;5.080;2022-08-04T04:14:50;9.65;;;4.45;;
36747;SDS011;22716;51.556;5.080;2022-08-04T04:17:53;9.63;;;5.40;;
36747;SDS011;22716;51.556;5.080;2022-08-04T04:20:52;7.43;;;4.63;;
36747;SDS011;22716;51.556;5.080;2022-08-04T04:26:23;14.05;;;5.47;;
36747;SDS011;22716;51.556;5.080;2022-08-04T04:32:16;11.83;;;5.87;;
36747;SDS011;22716;51.556;5.080;2022-08-04T04:35:02;10.60;;;4.82;;
36747;SDS011;22716;51.556;5.080;2022-08-04T04:38:00;13.43;;;5.78;;
36747;SDS011;22716;51.556;5.080;2022-08-04T04:40:54;9.23;;;5.20;;
36747;SDS011;22716;51.556;5.080;2022-08-04T04:43:40;12.60;;;6.40;;
36747;SDS011;22716;51.556;5.080;2022-08-04T04:46:36;10.30;;;5.15;;
36747;SDS011;22716;51.556;5.080;2022-08-04T04:49:16;9.07;;;4.82;;
36747;SDS011;22716;51.556;5.080;2022-08-04T04:52:07;9.50;;;5.55;;
36747;SDS011;22716;51.556;5.080;2022-08-04T04:54:50;8.48;;;5.07;;
36747;SDS011;22716;51.556;5.080;2022-08-04T04:57:30;14.57;;;5.40;;
36747;SDS011;22716;51.556;5.080;2022-08-04T05:00:04;6.72;;;4.30;;
36747;SDS011;22716;51.556;5.080;2022-08-04T05:05:46;11.95;;;5.03;;
36747;SDS011;22716;51.556;5.080;2022-08-04T05:08:41;10.77;;;6.03;;
36747;SDS011;22716;51.556;5.080;2022-08-04T05:11:50;10.60;;;4.53;;
36747;SDS011;22716;51.556;5.080;2022-08-04T05:14:32;13.32;;;5.85;;
36747;SDS011;22716;51.556;5.080;2022-08-04T05:19:43;9.18;;;5.43;;
36747;SDS011;22716;51.556;5.080;2022-08-04T05:22:24;9.02;;;5.15;;
36747;SDS011;22716;51.556;5.080;2022-08-04T05:25:02;8.40;;;5.85;;
36747;SDS011;22716;51.556;5.080;2022-08-04T05:27:37;10.57;;;4.88;;
36747;SDS011;22716;51.556;5.080;2022-08-04T05:30:13;7.63;;;4.60;;
36747;SDS011;22716;51.556;5.080;2022-08-04T05:32:44;7.65;;;4.70;;
36747;SDS011;22716;51.556;5.080;2022-08-04T05:35:21;10.48;;;4.72;;
36747;SDS011;22716;51.556;5.080;2022-08-04T05:38:02;6.03;;;4.38;;
36747;SDS011;22716;51.556;5.080;2022-08-04T05:40:33;13.80;;;4.38;;
36747;SDS011;22716;51.556;5.080;2022-08-04T05:43:03;11.38;;;4.60;;
36747;SDS011;22716;51.556;5.080;2022-08-04T05:45:34;11.50;;;4.78;;
36747;SDS011;22716;51.556;5.080;2022-08-04T05:48:06;10.60;;;5.25;;
36747;SDS011;22716;51.556;5.080;2022-08-04T05:50:36;9.57;;;4.68;;
36747;SDS011;22716;51.556;5.080;2022-08-04T05:53:08;10.45;;;4.43;;
36747;SDS011;22716;51.556;5.080;2022-08-04T05:55:41;12.93;;;4.03;;
36747;SDS011;22716;51.556;5.080;2022-08-04T05:58:13;9.13;;;3.63;;
36747;SDS011;22716;51.556;5.080;2022-08-04T06:00:44;7.60;;;3.40;;
36747;SDS011;22716;51.556;5.080;2022-08-04T06:03:14;9.87;;;3.50;;
36747;SDS011;22716;51.556;5.080;2022-08-04T06:05:44;11.75;;;3.67;;
36747;SDS011;22716;51.556;5.080;2022-08-04T06:08:17;6.85;;;3.17;;
36747;SDS011;22716;51.556;5.080;2022-08-04T06:10:47;9.50;;;3.90;;
36747;SDS011;22716;51.556;5.080;2022-08-04T06:13:20;13.38;;;3.88;;
36747;SDS011;22716;51.556;5.080;2022-08-04T06:15:56;7.28;;;3.72;;
36747;SDS011;22716;51.556;5.080;2022-08-04T06:18:30;10.27;;;3.20;;
36747;SDS011;22716;51.556;5.080;2022-08-04T06:21:08;7.63;;;3.72;;
36747;SDS011;22716;51.556;5.080;2022-08-04T06:23:41;19.67;;;5.25;;
36747;SDS011;22716;51.556;5.080;2022-08-04T06:28:45;8.02;;;3.63;;
36747;SDS011;22716;51.556;5.080;2022-08-04T06:31:18;9.37;;;3.83;;
36747;SDS011;22716;51.556;5.080;2022-08-04T06:34:00;8.43;;;3.88;;
36747;SDS011;22716;51.556;5.080;2022-08-04T06:36:32;7.47;;;3.47;;
36747;SDS011;22716;51.556;5.080;2022-08-04T06:39:06;6.97;;;3.83;;
36747;SDS011;22716;51.556;5.080;2022-08-04T06:41:40;9.68;;;3.58;;
36747;SDS011;22716;51.556;5.080;2022-08-04T06:44:10;4.85;;;3.53;;
36747;SDS011;22716;51.556;5.080;2022-08-04T06:46:42;9.60;;;4.30;;
36747;SDS011;22716;51.556;5.080;2022-08-04T06:49:12;8.93;;;3.78;;
36747;SDS011;22716;51.556;5.080;2022-08-04T06:51:42;7.25;;;3.65;;
36747;SDS011;22716;51.556;5.080;2022-08-04T06:54:20;11.68;;;4.15;;
36747;SDS011;22716;51.556;5.080;2022-08-04T06:56:49;6.93;;;3.70;;
36747;SDS011;22716;51.556;5.080;2022-08-04T06:59:20;9.15;;;4.20;;
36747;SDS011;22716;51.556;5.080;2022-08-04T07:01:50;14.48;;;3.92;;
36747;SDS011;22716;51.556;5.080;2022-08-04T07:04:21;8.85;;;3.55;;
36747;SDS011;22716;51.556;5.080;2022-08-04T07:06:50;9.55;;;3.28;;
36747;SDS011;22716;51.556;5.080;2022-08-04T07:09:22;13.32;;;4.03;;
36747;SDS011;22716;51.556;5.080;2022-08-04T07:11:51;6.75;;;2.95;;
36747;SDS011;22716;51.556;5.080;2022-08-04T07:14:21;10.23;;;3.75;;
36747;SDS011;22716;51.556;5.080;2022-08-04T07:16:51;11.50;;;5.32;;
36747;SDS011;22716;51.556;5.080;2022-08-04T07:19:23;4.68;;;3.00;;
36747;SDS011;22716;51.556;5.080;2022-08-04T07:21:52;9.25;;;2.85;;
36747;SDS011;22716;51.556;5.080;2022-08-04T07:24:30;9.18;;;2.92;;
36747;SDS011;22716;51.556;5.080;2022-08-04T07:27:00;14.35;;;3.00;;
36747;SDS011;22716;51.556;5.080;2022-08-04T07:29:31;7.03;;;2.90;;
36747;SDS011;22716;51.556;5.080;2022-08-04T07:32:04;7.03;;;2.78;;
36747;SDS011;22716;51.556;5.080;2022-08-04T07:34:36;9.80;;;3.40;;
36747;SDS011;22716;51.556;5.080;2022-08-04T07:37:05;13.18;;;2.33;;
36747;SDS011;22716;51.556;5.080;2022-08-04T07:39:37;9.48;;;3.95;;
36747;SDS011;22716;51.556;5.080;2022-08-04T07:42:06;9.98;;;3.10;;
36747;SDS011;22716;51.556;5.080;2022-08-04T07:44:36;9.10;;;2.72;;
36747;SDS011;22716;51.556;5.080;2022-08-04T07:47:09;6.93;;;2.53;;
36747;SDS011;22716;51.556;5.080;2022-08-04T07:49:41;9.15;;;3.92;;
36747;SDS011;22716;51.556;5.080;2022-08-04T07:52:11;5.68;;;2.45;;
36747;SDS011;22716;51.556;5.080;2022-08-04T07:54:44;9.70;;;3.15;;
36747;SDS011;22716;51.556;5.080;2022-08-04T07:57:16;13.90;;;3.45;;
36747;SDS011;22716;51.556;5.080;2022-08-04T07:59:46;17.83;;;4.00;;
36747;SDS011;22716;51.556;5.080;2022-08-04T08:02:20;10.70;;;4.20;;
36747;SDS011;22716;51.556;5.080;2022-08-04T08:04:50;12.68;;;3.08;;
36747;SDS011;22716;51.556;5.080;2022-08-04T08:07:20;11.25;;;3.15;;
36747;SDS011;22716;51.556;5.080;2022-08-04T08:10:05;7.50;;;3.25;;
36747;SDS011;22716;51.556;5.080;2022-08-04T08:12:44;7.75;;;2.38;;
36747;SDS011;22716;51.556;5.080;2022-08-04T08:15:13;8.34;;;2.96;;
36747;SDS011;22716;51.556;5.080;2022-08-04T08:17:43;8.18;;;3.53;;
36747;SDS011;22716;51.556;5.080;2022-08-04T08:20:13;8.55;;;2.70;;
36747;SDS011;22716;51.556;5.080;2022-08-04T08:22:42;10.02;;;2.90;;
36747;SDS011;22716;51.556;5.080;2022-08-04T08:25:13;8.43;;;2.55;;
36747;SDS011;22716;51.556;5.080;2022-08-04T08:27:42;7.07;;;2.00;;
36747;SDS011;22716;51.556;5.080;2022-08-04T08:30:12;9.27;;;2.40;;
36747;SDS011;22716;51.556;5.080;2022-08-04T08:32:41;8.63;;;2.92;;
36747;SDS011;22716;51.556;5.080;2022-08-04T08:35:11;7.63;;;2.30;;
36747;SDS011;22716;51.556;5.080;2022-08-04T08:37:43;7.78;;;2.63;;
36747;SDS011;22716;51.556;5.080;2022-08-04T08:40:31;11.13;;;3.58;;
36747;SDS011;22716;51.556;5.080;2022-08-04T08:43:18;6.40;;;1.93;;
36747;SDS011;22716;51.556;5.080;2022-08-04T08:49:17;8.38;;;2.10;;
36747;SDS011;22716;51.556;5.080;2022-08-04T08:52:13;10.27;;;2.45;;
36747;SDS011;22716;51.556;5.080;2022-08-04T08:54:55;10.15;;;2.88;;
36747;SDS011;22716;51.556;5.080;2022-08-04T08:57:48;7.22;;;1.83;;
36747;SDS011;22716;51.556;5.080;2022-08-04T09:00:33;6.55;;;2.22;;
36747;SDS011;22716;51.556;5.080;2022-08-04T09:09:39;7.43;;;2.20;;
36747;SDS011;22716;51.556;5.080;2022-08-04T09:12:19;12.88;;;3.13;;
36747;SDS011;22716;51.556;5.080;2022-08-04T09:15:02;7.90;;;2.28;;
36747;SDS011;22716;51.556;5.080;2022-08-04T09:17:40;9.93;;;2.88;;
36747;SDS011;22716;51.556;5.080;2022-08-04T09:20:24;6.00;;;2.30;;
36747;SDS011;22716;51.556;5.080;2022-08-04T09:23:05;10.68;;;2.70;;
36747;SDS011;22716;51.556;5.080;2022-08-04T09:25:46;9.48;;;2.63;;
36747;SDS011;22716;51.556;5.080;2022-08-04T09:28:26;10.00;;;2.08;;
36747;SDS011;22716;51.556;5.080;2022-08-04T09:31:06;7.28;;;2.55;;
36747;SDS011;22716;51.556;5.080;2022-08-04T09:33:43;11.77;;;3.25;;
36747;SDS011;22716;51.556;5.080;2022-08-04T09:36:29;10.57;;;2.45;;
36747;SDS011;22716;51.556;5.080;2022-08-04T09:39:10;4.97;;;1.97;;
36747;SDS011;22716;51.556;5.080;2022-08-04T09:41:53;5.72;;;2.03;;
36747;SDS011;22716;51.556;5.080;2022-08-04T09:44:33;4.35;;;2.13;;
36747;SDS011;22716;51.556;5.080;2022-08-04T09:47:16;5.05;;;2.00;;
36747;SDS011;22716;51.556;5.080;2022-08-04T09:49:54;5.50;;;1.95;;
36747;SDS011;22716;51.556;5.080;2022-08-04T09:52:38;4.97;;;2.20;;
36747;SDS011;22716;51.556;5.080;2022-08-04T09:55:19;7.77;;;1.77;;
36747;SDS011;22716;51.556;5.080;2022-08-04T09:58:04;6.85;;;2.28;;
36747;SDS011;22716;51.556;5.080;2022-08-04T10:00:39;8.23;;;2.50;;
36747;SDS011;22716;51.556;5.080;2022-08-04T10:03:18;7.05;;;2.72;;
36747;SDS011;22716;51.556;5.080;2022-08-04T10:06:12;7.97;;;1.73;;
36747;SDS011;22716;51.556;5.080;2022-08-04T10:09:00;8.88;;;1.73;;
36747;SDS011;22716;51.556;5.080;2022-08-04T10:11:51;6.18;;;1.88;;
36747;SDS011;22716;51.556;5.080;2022-08-04T10:14:36;10.60;;;3.28;;
36747;SDS011;22716;51.556;5.080;2022-08-04T10:17:18;7.63;;;1.60;;
36747;SDS011;22716;51.556;5.080;2022-08-04T10:20:02;6.30;;;2.33;;
36747;SDS011;22716;51.556;5.080;2022-08-04T10:22:36;5.90;;;2.40;;
36747;SDS011;22716;51.556;5.080;2022-08-04T10:25:16;6.95;;;2.58;;
36747;SDS011;22716;51.556;5.080;2022-08-04T10:27:59;10.63;;;2.58;;
36747;SDS011;22716;51.556;5.080;2022-08-04T10:30:38;6.82;;;3.53;;
36747;SDS011;22716;51.556;5.080;2022-08-04T10:33:20;12.02;;;8.05;;
36747;SDS011;22716;51.556;5.080;2022-08-04T10:36:05;7.22;;;2.88;;
36747;SDS011;22716;51.556;5.080;2022-08-04T10:38:39;8.73;;;2.30;;
36747;SDS011;22716;51.556;5.080;2022-08-04T10:41:19;6.05;;;2.17;;
36747;SDS011;22716;51.556;5.080;2022-08-04T10:44:08;4.80;;;2.03;;
36747;SDS011;22716;51.556;5.080;2022-08-04T10:46:50;6.75;;;2.83;;
36747;SDS011;22716;51.556;5.080;2022-08-04T10:49:39;15.35;;;2.45;;
36747;SDS011;22716;51.556;5.080;2022-08-04T10:52:17;8.20;;;2.53;;
36747;SDS011;22716;51.556;5.080;2022-08-04T10:54:52;8.20;;;3.03;;
36747;SDS011;22716;51.556;5.080;2022-08-04T10:57:33;8.00;;;2.67;;
36747;SDS011;22716;51.556;5.080;2022-08-04T11:00:09;4.93;;;2.77;;
36747;SDS011;22716;51.556;5.080;2022-08-04T11:02:48;4.85;;;2.28;;
36747;SDS011;22716;51.556;5.080;2022-08-04T11:05:28;5.85;;;2.28;;
36747;SDS011;22716;51.556;5.080;2022-08-04T11:08:08;4.65;;;2.05;;
36747;SDS011;22716;51.556;5.080;2022-08-04T11:10:44;7.07;;;2.35;;
36747;SDS011;22716;51.556;5.080;2022-08-04T11:13:19;10.13;;;2.53;;
36747;SDS011;22716;51.556;5.080;2022-08-04T11:15:52;9.07;;;3.42;;
36747;SDS011;22716;51.556;5.080;2022-08-04T11:18:24;8.93;;;3.22;;
36747;SDS011;22716;51.556;5.080;2022-08-04T11:21:05;8.48;;;2.30;;
36747;SDS011;22716;51.556;5.080;2022-08-04T11:23:43;5.22;;;1.88;;
36747;SDS011;22716;51.556;5.080;2022-08-04T11:29:04;3.53;;;2.13;;
36747;SDS011;22716;51.556;5.080;2022-08-04T11:31:40;4.78;;;2.50;;
36747;SDS011;22716;51.556;5.080;2022-08-04T11:34:13;4.22;;;2.05;;
36747;SDS011;22716;51.556;5.080;2022-08-04T11:36:51;3.25;;;1.75;;
36747;SDS011;22716;51.556;5.080;2022-08-04T11:39:35;7.40;;;2.70;;
36747;SDS011;22716;51.556;5.080;2022-08-04T11:42:12;6.70;;;1.92;;
36747;SDS011;22716;51.556;5.080;2022-08-04T11:44:47;10.80;;;2.17;;
36747;SDS011;22716;51.556;5.080;2022-08-04T11:47:26;5.90;;;2.13;;
36747;SDS011;22716;51.556;5.080;2022-08-04T11:50:01;5.25;;;2.25;;
36747;SDS011;22716;51.556;5.080;2022-08-04T11:52:40;5.70;;;2.30;;
36747;SDS011;22716;51.556;5.080;2022-08-04T11:55:17;7.13;;;3.03;;
36747;SDS011;22716;51.556;5.080;2022-08-04T11:57:48;8.77;;;2.45;;
36747;SDS011;22716;51.556;5.080;2022-08-04T12:00:18;7.87;;;3.00;;
36747;SDS011;22716;51.556;5.080;2022-08-04T12:05:50;5.95;;;2.67;;
36747;SDS011;22716;51.556;5.080;2022-08-04T12:08:31;6.00;;;2.50;;
36747;SDS011;22716;51.556;5.080;2022-08-04T12:11:20;6.57;;;2.92;;
36747;SDS011;22716;51.556;5.080;2022-08-04T12:14:09;7.15;;;2.45;;
36747;SDS011;22716;51.556;5.080;2022-08-04T12:16:50;6.57;;;2.60;;
36747;SDS011;22716;51.556;5.080;2022-08-04T12:19:29;5.28;;;2.70;;
36747;SDS011;22716;51.556;5.080;2022-08-04T12:22:04;6.60;;;2.70;;
36747;SDS011;22716;51.556;5.080;2022-08-04T12:24:40;5.95;;;3.97;;
36747;SDS011;22716;51.556;5.080;2022-08-04T12:27:15;7.93;;;3.35;;
36747;SDS011;22716;51.556;5.080;2022-08-04T12:29:47;7.70;;;3.22;;
36747;SDS011;22716;51.556;5.080;2022-08-04T12:32:37;10.90;;;3.17;;
36747;SDS011;22716;51.556;5.080;2022-08-04T12:35:13;5.10;;;2.60;;
36747;SDS011;22716;51.556;5.080;2022-08-04T12:37:47;7.82;;;3.17;;
36747;SDS011;22716;51.556;5.080;2022-08-04T12:40:31;7.68;;;3.33;;
36747;SDS011;22716;51.556;5.080;2022-08-04T12:43:19;11.00;;;3.58;;
36747;SDS011;22716;51.556;5.080;2022-08-04T12:45:56;11.40;;;3.90;;
36747;SDS011;22716;51.556;5.080;2022-08-04T12:48:31;4.75;;;3.25;;
36747;SDS011;22716;51.556;5.080;2022-08-04T12:51:04;6.15;;;2.78;;
36747;SDS011;22716;51.556;5.080;2022-08-04T12:53:41;7.60;;;3.40;;
36747;SDS011;22716;51.556;5.080;2022-08-04T12:56:12;6.78;;;3.85;;
36747;SDS011;22716;51.556;5.080;2022-08-04T12:58:47;5.97;;;3.00;;
36747;SDS011;22716;51.556;5.080;2022-08-04T13:01:20;9.50;;;3.67;;
36747;SDS011;22716;51.556;5.080;2022-08-04T13:03:51;5.55;;;2.70;;
36747;SDS011;22716;51.556;5.080;2022-08-04T13:06:29;6.25;;;3.83;;
36747;SDS011;22716;51.556;5.080;2022-08-04T13:09:03;6.03;;;3.13;;
36747;SDS011;22716;51.556;5.080;2022-08-04T13:11:38;8.75;;;3.65;;
36747;SDS011;22716;51.556;5.080;2022-08-04T13:14:15;8.57;;;3.42;;
36747;SDS011;22716;51.556;5.080;2022-08-04T13:16:47;10.15;;;3.38;;
36747;SDS011;22716;51.556;5.080;2022-08-04T13:19:25;6.25;;;2.60;;
36747;SDS011;22716;51.556;5.080;2022-08-04T13:21:56;5.13;;;2.65;;
36747;SDS011;22716;51.556;5.080;2022-08-04T13:24:27;4.30;;;2.85;;
36747;SDS011;22716;51.556;5.080;2022-08-04T13:27:02;8.60;;;3.55;;
36747;SDS011;22716;51.556;5.080;2022-08-04T13:29:40;8.77;;;3.28;;
36747;SDS011;22716;51.556;5.080;2022-08-04T13:32:16;7.03;;;2.65;;
36747;SDS011;22716;51.556;5.080;2022-08-04T13:34:51;5.10;;;2.38;;
36747;SDS011;22716;51.556;5.080;2022-08-04T13:37:23;4.60;;;2.60;;
36747;SDS011;22716;51.556;5.080;2022-08-04T13:39:53;9.77;;;3.55;;
36747;SDS011;22716;51.556;5.080;2022-08-04T13:42:25;8.63;;;3.47;;
36747;SDS011;22716;51.556;5.080;2022-08-04T13:44:58;8.25;;;3.28;;
36747;SDS011;22716;51.556;5.080;2022-08-04T13:47:31;4.20;;;2.30;;
36747;SDS011;22716;51.556;5.080;2022-08-04T13:50:07;5.70;;;2.28;;
36747;SDS011;22716;51.556;5.080;2022-08-04T13:52:43;6.30;;;2.25;;
36747;SDS011;22716;51.556;5.080;2022-08-04T13:55:17;7.45;;;3.03;;
36747;SDS011;22716;51.556;5.080;2022-08-04T13:57:50;5.80;;;2.13;;
36747;SDS011;22716;51.556;5.080;2022-08-04T14:00:35;4.82;;;2.10;;
36747;SDS011;22716;51.556;5.080;2022-08-04T14:03:09;5.35;;;2.50;;
36747;SDS011;22716;51.556;5.080;2022-08-04T14:05:48;6.25;;;3.17;;
36747;SDS011;22716;51.556;5.080;2022-08-04T14:08:44;5.57;;;2.78;;
36747;SDS011;22716;51.556;5.080;2022-08-04T14:11:33;7.82;;;2.30;;
36747;SDS011;22716;51.556;5.080;2022-08-04T14:14:11;6.22;;;2.15;;
36747;SDS011;22716;51.556;5.080;2022-08-04T14:16:59;3.53;;;2.67;;
36747;SDS011;22716;51.556;5.080;2022-08-04T14:19:48;6.75;;;2.47;;
36747;SDS011;22716;51.556;5.080;2022-08-04T14:22:26;6.65;;;1.95;;
36747;SDS011;22716;51.556;5.080;2022-08-04T14:25:05;5.97;;;2.42;;
36747;SDS011;22716;51.556;5.080;2022-08-04T14:27:41;7.53;;;2.13;;
36747;SDS011;22716;51.556;5.080;2022-08-04T14:30:19;7.68;;;2.30;;
36747;SDS011;22716;51.556;5.080;2022-08-04T14:32:59;6.00;;;2.25;;
36747;SDS011;22716;51.556;5.080;2022-08-04T14:35:34;5.97;;;2.08;;
36747;SDS011;22716;51.556;5.080;2022-08-04T14:38:06;11.93;;;2.80;;
36747;SDS011;22716;51.556;5.080;2022-08-04T14:40:38;7.30;;;2.63;;
36747;SDS011;22716;51.556;5.080;2022-08-04T14:43:13;6.55;;;2.30;;
36747;SDS011;22716;51.556;5.080;2022-08-04T14:45:45;4.82;;;2.17;;
36747;SDS011;22716;51.556;5.080;2022-08-04T14:48:36;6.55;;;2.40;;
36747;SDS011;22716;51.556;5.080;2022-08-04T14:51:11;4.28;;;3.17;;
36747;SDS011;22716;51.556;5.080;2022-08-04T14:53:46;4.28;;;2.42;;
36747;SDS011;22716;51.556;5.080;2022-08-04T14:56:16;4.32;;;2.10;;
36747;SDS011;22716;51.556;5.080;2022-08-04T14:58:45;4.88;;;2.50;;
36747;SDS011;22716;51.556;5.080;2022-08-04T15:01:29;7.25;;;2.88;;
36747;SDS011;22716;51.556;5.080;2022-08-04T15:04:02;8.05;;;2.38;;
36747;SDS011;22716;51.556;5.080;2022-08-04T15:06:34;5.93;;;3.00;;
36747;SDS011;22716;51.556;5.080;2022-08-04T15:09:04;6.60;;;2.60;;
36747;SDS011;22716;51.556;5.080;2022-08-04T15:11:36;7.78;;;3.15;;
36747;SDS011;22716;51.556;5.080;2022-08-04T15:14:05;6.70;;;2.65;;
36747;SDS011;22716;51.556;5.080;2022-08-04T15:16:34;6.40;;;2.83;;
36747;SDS011;22716;51.556;5.080;2022-08-04T15:19:05;4.90;;;2.40;;
36747;SDS011;22716;51.556;5.080;2022-08-04T15:21:35;6.68;;;3.85;;
36747;SDS011;22716;51.556;5.080;2022-08-04T15:24:05;7.30;;;2.80;;
36747;SDS011;22716;51.556;5.080;2022-08-04T15:26:37;9.83;;;2.90;;
36747;SDS011;22716;51.556;5.080;2022-08-04T15:29:10;7.75;;;3.05;;
36747;SDS011;22716;51.556;5.080;2022-08-04T15:31:43;5.00;;;2.67;;
36747;SDS011;22716;51.556;5.080;2022-08-04T15:34:17;7.93;;;3.28;;
36747;SDS011;22716;51.556;5.080;2022-08-04T15:36:50;6.38;;;2.15;;
36747;SDS011;22716;51.556;5.080;2022-08-04T15:39:30;4.72;;;2.50;;
36747;SDS011;22716;51.556;5.080;2022-08-04T15:42:09;4.80;;;2.20;;
36747;SDS011;22716;51.556;5.080;2022-08-04T15:47:33;9.73;;;2.75;;
36747;SDS011;22716;51.556;5.080;2022-08-04T15:50:06;4.85;;;2.50;;
36747;SDS011;22716;51.556;5.080;2022-08-04T15:55:32;6.68;;;2.30;;
36747;SDS011;22716;51.556;5.080;2022-08-04T15:58:21;5.68;;;2.60;;
36747;SDS011;22716;51.556;5.080;2022-08-04T16:03:44;9.75;;;2.63;;
36747;SDS011;22716;51.556;5.080;2022-08-04T16:09:21;6.47;;;2.20;;
36747;SDS011;22716;51.556;5.080;2022-08-04T16:11:54;4.80;;;2.17;;
36747;SDS011;22716;51.556;5.080;2022-08-04T16:14:31;11.40;;;2.95;;
36747;SDS011;22716;51.556;5.080;2022-08-04T16:19:56;6.15;;;2.78;;
36747;SDS011;22716;51.556;5.080;2022-08-04T16:22:36;4.75;;;1.80;;
36747;SDS011;22716;51.556;5.080;2022-08-04T16:25:09;6.05;;;1.85;;
36747;SDS011;22716;51.556;5.080;2022-08-04T16:27:40;5.60;;;1.90;;
36747;SDS011;22716;51.556;5.080;2022-08-04T16:30:27;7.32;;;2.00;;
36747;SDS011;22716;51.556;5.080;2022-08-04T16:32:57;12.57;;;1.90;;
36747;SDS011;22716;51.556;5.080;2022-08-04T16:35:26;4.47;;;1.90;;
36747;SDS011;22716;51.556;5.080;2022-08-04T16:40:44;8.38;;;1.95;;
36747;SDS011;22716;51.556;5.080;2022-08-04T16:43:22;3.30;;;1.60;;
36747;SDS011;22716;51.556;5.080;2022-08-04T16:45:56;4.15;;;1.63;;
36747;SDS011;22716;51.556;5.080;2022-08-04T16:48:28;6.22;;;2.53;;
36747;SDS011;22716;51.556;5.080;2022-08-04T16:50:59;4.55;;;1.65;;
36747;SDS011;22716;51.556;5.080;2022-08-04T16:53:34;3.57;;;1.73;;
36747;SDS011;22716;51.556;5.080;2022-08-04T16:56:08;5.75;;;2.22;;
36747;SDS011;22716;51.556;5.080;2022-08-04T16:58:39;4.15;;;2.30;;
36747;SDS011;22716;51.556;5.080;2022-08-04T17:01:10;3.65;;;1.67;;
36747;SDS011;22716;51.556;5.080;2022-08-04T17:03:48;4.80;;;2.00;;
36747;SDS011;22716;51.556;5.080;2022-08-04T17:06:20;5.10;;;1.90;;
36747;SDS011;22716;51.556;5.080;2022-08-04T17:08:52;4.43;;;1.65;;
36747;SDS011;22716;51.556;5.080;2022-08-04T17:11:21;2.90;;;1.92;;